createdAt,value
2022-11-26T00:02:26.593Z,8.53
2022-11-26T00:04:53.757Z,8.46
2022-11-26T00:07:26.658Z,8.43
2022-11-26T00:09:53.815Z,8.45
2022-11-26T00:12:20.314Z,8.43
2022-11-26T00:14:52.077Z,8.28
2022-11-26T00:17:18.843Z,8.04
2022-11-26T00:19:45.454Z,8.01
2022-11-26T00:22:18.023Z,7.91
2022-11-26T00:24:45.115Z,7.85
2022-11-26T00:27:11.666Z,7.81
2022-11-26T00:29:38.634Z,7.93
2022-11-26T00:32:06.175Z,8.01
2022-11-26T00:34:32.723Z,7.99
2022-11-26T00:36:59.211Z,8.10
2022-11-26T00:39:25.741Z,8.13
2022-11-26T00:41:52.746Z,8.28
2022-11-26T00:44:22.681Z,8.28
2022-11-26T00:46:49.572Z,8.30
2022-11-26T00:49:16.580Z,8.41
2022-11-26T00:51:43.467Z,8.39
2022-11-26T00:54:10.456Z,8.36
2022-11-26T00:56:38.280Z,8.40
2022-11-26T00:59:05.020Z,8.35
2022-11-26T01:01:33.002Z,8.24
2022-11-26T01:03:59.641Z,8.30
2022-11-26T01:06:33.233Z,8.13
2022-11-26T01:08:59.778Z,8.34
2022-11-26T01:11:26.482Z,8.36
2022-11-26T01:13:54.149Z,8.36
2022-11-26T01:16:22.756Z,8.27
2022-11-26T01:18:50.009Z,8.24
2022-11-26T01:21:17.327Z,8.22
2022-11-26T01:23:43.899Z,8.31
2022-11-26T01:26:17.451Z,8.10
2022-11-26T01:28:44.517Z,8.16
2022-11-26T01:31:21.574Z,8.17
2022-11-26T01:33:48.237Z,8.21
2022-11-26T01:36:23.943Z,8.28
2022-11-26T01:38:55.803Z,8.08
2022-11-26T01:41:34.807Z,8.22
2022-11-26T01:44:01.360Z,8.28
2022-11-26T01:46:30.108Z,8.33
2022-11-26T01:49:17.748Z,8.35
2022-11-26T01:51:44.375Z,8.53
2022-11-26T01:54:11.187Z,8.41
2022-11-26T01:56:38.455Z,8.55
2022-11-26T01:59:08.181Z,8.64
2022-11-26T02:01:34.797Z,8.55
2022-11-26T02:04:20.615Z,8.57
2022-11-26T02:06:48.302Z,8.32
2022-11-26T02:09:15.192Z,8.17
2022-11-26T02:11:41.857Z,8.42
2022-11-26T02:14:12.890Z,8.44
2022-11-26T02:16:45.364Z,8.52
2022-11-26T02:19:32.264Z,8.42
2022-11-26T02:22:19.058Z,8.50
2022-11-26T02:25:08.674Z,8.41
2022-11-26T02:27:50.401Z,8.50
2022-11-26T02:30:17.378Z,8.45
2022-11-26T02:32:50.008Z,8.55
2022-11-26T02:35:19.475Z,8.51
2022-11-26T02:37:52.006Z,8.45
2022-11-26T02:40:18.697Z,8.48
2022-11-26T02:42:45.244Z,8.46
2022-11-26T02:45:13.504Z,8.47
2022-11-26T02:47:41.085Z,8.43
2022-11-26T02:50:09.005Z,8.40
2022-11-26T02:52:35.479Z,8.45
2022-11-26T02:55:02.140Z,8.47
2022-11-26T02:57:29.297Z,8.40
2022-11-26T02:59:55.787Z,8.55
2022-11-26T03:02:26.522Z,8.56
2022-11-26T03:04:54.319Z,8.46
2022-11-26T03:07:21.191Z,8.43
2022-11-26T03:09:52.238Z,8.50
2022-11-26T03:12:19.566Z,8.54
2022-11-26T03:14:46.069Z,8.45
2022-11-26T03:17:12.586Z,8.46
2022-11-26T03:19:39.168Z,8.42
2022-11-26T03:22:05.681Z,8.32
2022-11-26T03:24:32.601Z,8.29
2022-11-26T03:26:59.345Z,8.33
2022-11-26T03:29:25.999Z,8.45
2022-11-26T03:31:52.859Z,8.41
2022-11-26T03:34:20.107Z,8.44
2022-11-26T03:36:46.643Z,8.33
2022-11-26T03:39:13.347Z,8.32
2022-11-26T03:41:42.547Z,8.34
2022-11-26T03:44:09.087Z,8.38
2022-11-26T03:46:35.640Z,8.25
2022-11-26T03:49:02.114Z,8.17
2022-11-26T03:51:28.632Z,8.17
2022-11-26T03:53:55.141Z,8.20
2022-11-26T03:56:21.678Z,8.23
2022-11-26T03:58:48.256Z,8.03
2022-11-26T04:01:14.856Z,7.68
2022-11-26T04:03:41.504Z,7.63
2022-11-26T04:06:08.351Z,7.59
2022-11-26T04:08:34.955Z,7.49
2022-11-26T04:11:01.496Z,7.37
2022-11-26T04:13:27.979Z,7.37
2022-11-26T04:15:54.511Z,7.29
2022-11-26T04:18:21.066Z,7.17
2022-11-26T04:20:52.631Z,7.09
2022-11-26T04:23:19.943Z,7.12
2022-11-26T04:25:46.728Z,7.15
2022-11-26T04:28:13.760Z,7.01
2022-11-26T04:30:40.262Z,6.85
2022-11-26T04:33:06.821Z,6.80
2022-11-26T04:35:33.349Z,6.71
2022-11-26T04:37:59.849Z,6.77
2022-11-26T04:40:26.317Z,6.59
2022-11-26T04:42:52.870Z,6.68
2022-11-26T04:45:19.400Z,6.60
2022-11-26T04:47:45.918Z,6.52
2022-11-26T04:50:12.569Z,6.38
2022-11-26T04:52:39.063Z,6.34
2022-11-26T04:55:05.760Z,6.30
2022-11-26T04:57:32.306Z,6.20
2022-11-26T04:59:58.860Z,6.18
2022-11-26T05:02:25.626Z,6.24
2022-11-26T05:04:52.698Z,6.21
2022-11-26T05:07:19.279Z,6.21
2022-11-26T05:09:45.860Z,6.23
2022-11-26T05:12:12.861Z,6.19
2022-11-26T05:14:39.752Z,6.21
2022-11-26T05:17:06.606Z,6.33
2022-11-26T05:19:34.196Z,6.37
2022-11-26T05:22:00.720Z,6.52
2022-11-26T05:24:27.475Z,6.45
2022-11-26T05:26:57.097Z,6.54
2022-11-26T05:29:24.186Z,6.62
2022-11-26T05:31:50.917Z,6.60
2022-11-26T05:34:17.513Z,6.69
2022-11-26T05:36:44.051Z,6.77
2022-11-26T05:39:10.777Z,6.90
2022-11-26T05:41:37.326Z,6.76
2022-11-26T05:44:04.276Z,6.80
2022-11-26T05:46:30.775Z,6.86
2022-11-26T05:48:57.407Z,7.06
2022-11-26T05:51:23.966Z,6.70
2022-11-26T05:53:50.451Z,6.75
2022-11-26T05:56:17.066Z,6.77
2022-11-26T05:58:43.600Z,6.78
2022-11-26T06:01:10.417Z,6.78
2022-11-26T06:03:37.903Z,6.70
2022-11-26T06:06:04.760Z,6.73
2022-11-26T06:08:31.898Z,6.65
2022-11-26T06:13:25.059Z,6.66
2022-11-26T06:15:51.630Z,6.74
2022-11-26T06:18:18.265Z,6.75
2022-11-26T06:20:44.860Z,6.78
2022-11-26T06:23:11.409Z,6.80
2022-11-26T06:25:39.848Z,6.65
2022-11-26T06:28:06.444Z,6.70
2022-11-26T06:30:33.068Z,6.71
2022-11-26T06:32:59.874Z,6.47
2022-11-26T06:35:26.605Z,6.33
2022-11-26T06:37:53.092Z,6.30
2022-11-26T06:40:19.931Z,6.17
2022-11-26T06:42:50.102Z,6.20
2022-11-26T06:45:16.753Z,6.16
2022-11-26T06:47:43.232Z,6.18
2022-11-26T06:50:11.015Z,6.22
2022-11-26T06:52:37.626Z,6.29
2022-11-26T06:55:04.309Z,6.20
2022-11-26T06:57:30.842Z,6.34
2022-11-26T06:59:57.402Z,6.39
2022-11-26T07:02:23.998Z,6.50
2022-11-26T07:04:50.511Z,6.48
2022-11-26T07:07:17.485Z,6.54
2022-11-26T07:09:44.028Z,6.62
2022-11-26T07:12:10.756Z,6.75
2022-11-26T07:14:37.832Z,6.77
2022-11-26T07:17:05.265Z,6.60
2022-11-26T07:19:32.467Z,6.70
2022-11-26T07:21:59.032Z,6.89
2022-11-26T07:24:25.573Z,6.95
2022-11-26T07:26:52.355Z,6.90
2022-11-26T07:29:18.865Z,6.90
2022-11-26T07:31:45.448Z,7.04
2022-11-26T07:34:12.051Z,7.28
2022-11-26T07:36:43.100Z,7.25
2022-11-26T07:39:09.901Z,7.30
2022-11-26T07:41:36.655Z,7.28
2022-11-26T07:44:03.571Z,7.38
2022-11-26T07:46:30.585Z,7.54
2022-11-26T07:48:57.566Z,7.61
2022-11-26T07:51:25.195Z,7.64
2022-11-26T07:53:51.816Z,7.72
2022-11-26T07:56:18.532Z,7.86
2022-11-26T07:58:45.341Z,7.93
2022-11-26T08:01:15.876Z,7.96
2022-11-26T08:03:43.855Z,7.98
2022-11-26T08:06:12.149Z,8.14
2022-11-26T08:08:38.942Z,8.15
2022-11-26T08:11:10.011Z,8.18
2022-11-26T08:13:36.673Z,8.10
2022-11-26T08:16:04.055Z,8.13
2022-11-26T08:18:30.676Z,8.31
2022-11-26T08:20:57.565Z,8.28
2022-11-26T08:23:24.439Z,8.18
2022-11-26T08:26:20.447Z,8.18
2022-11-26T08:28:38.025Z,8.43
2022-11-26T08:31:07.058Z,8.48
2022-11-26T08:33:33.915Z,8.53
2022-11-26T08:36:07.185Z,8.67
2022-11-26T08:38:34.971Z,8.75
2022-11-26T08:41:02.175Z,8.83
2022-11-26T08:43:45.297Z,8.81
2022-11-26T08:46:16.625Z,8.87
2022-11-26T08:48:48.151Z,8.82
2022-11-26T08:51:23.708Z,8.84
2022-11-26T08:53:50.843Z,8.67
2022-11-26T08:56:21.104Z,8.72
2022-11-26T08:58:49.187Z,8.86
2022-11-26T09:01:17.123Z,8.97
2022-11-26T09:03:43.894Z,8.93
2022-11-26T09:06:10.694Z,8.76
2022-11-26T09:08:57.064Z,8.64
2022-11-26T09:11:23.922Z,8.59
2022-11-26T09:13:50.598Z,8.72
2022-11-26T09:16:17.178Z,8.90
2022-11-26T09:18:43.831Z,8.93
2022-11-26T09:21:10.766Z,8.82
2022-11-26T09:23:37.806Z,8.87
2022-11-26T09:26:04.365Z,8.93
2022-11-26T09:28:35.293Z,9.05
2022-11-26T09:31:04.325Z,9.16
2022-11-26T09:33:30.998Z,9.26
2022-11-26T09:36:07.488Z,9.36
2022-11-26T09:38:36.287Z,9.37
2022-11-26T09:41:12.335Z,9.44
2022-11-26T09:43:39.016Z,9.42
2022-11-26T09:46:05.587Z,9.14
2022-11-26T09:48:32.620Z,9.37
2022-11-26T09:51:07.521Z,9.27
2022-11-26T09:53:41.974Z,9.41
2022-11-26T09:56:13.742Z,9.48
2022-11-26T09:59:01.790Z,9.59
2022-11-26T10:01:28.734Z,9.51
2022-11-26T10:03:55.262Z,9.62
2022-11-26T10:06:24.860Z,9.40
2022-11-26T10:09:09.366Z,9.65
2022-11-26T10:11:38.993Z,9.83
2022-11-26T10:14:05.452Z,9.91
2022-11-26T10:16:40.931Z,9.98
2022-11-26T10:19:13.401Z,10.02
2022-11-26T10:24:32.479Z,10.05
2022-11-26T10:27:04.495Z,10.08
2022-11-26T10:29:35.412Z,10.20
2022-11-26T10:32:04.584Z,10.31
2022-11-26T10:34:39.462Z,10.20
2022-11-26T10:37:06.386Z,10.16
2022-11-26T10:39:32.891Z,10.46
2022-11-26T10:42:17.641Z,10.52
2022-11-26T10:44:44.603Z,10.55
2022-11-26T10:47:19.818Z,10.74
2022-11-26T10:49:46.411Z,10.75
2022-11-26T10:52:13.107Z,10.77
2022-11-26T10:54:41.499Z,10.88
2022-11-26T10:57:16.093Z,10.98
2022-11-26T10:59:50.496Z,10.77
2022-11-26T11:02:20.050Z,10.80
2022-11-26T11:04:48.431Z,10.76
2022-11-26T11:07:30.772Z,10.68
2022-11-26T11:10:06.248Z,10.84
2022-11-26T11:12:32.858Z,10.56
2022-11-26T11:15:13.118Z,10.71
2022-11-26T11:17:40.073Z,10.91
2022-11-26T11:20:16.174Z,10.96
2022-11-26T11:22:45.821Z,10.88
2022-11-26T11:25:22.499Z,10.75
2022-11-26T11:27:49.229Z,10.92
2022-11-26T11:30:25.631Z,11.15
2022-11-26T11:32:54.646Z,11.03
2022-11-26T11:35:23.463Z,11.01
2022-11-26T11:37:51.261Z,11.11
2022-11-26T11:40:25.371Z,11.13
2022-11-26T11:42:53.958Z,11.39
2022-11-26T11:45:22.881Z,11.39
2022-11-26T11:47:51.090Z,11.42
2022-11-26T11:50:21.636Z,11.11
2022-11-26T11:52:54.790Z,11.17
2022-11-26T11:55:21.243Z,11.27
2022-11-26T11:57:47.744Z,11.36
2022-11-26T12:00:14.706Z,11.51
2022-11-26T12:02:57.004Z,11.41
2022-11-26T12:05:26.700Z,11.22
2022-11-26T12:07:54.226Z,11.46
2022-11-26T12:10:23.403Z,11.30
2022-11-26T12:12:52.502Z,11.43
2022-11-26T12:15:28.227Z,11.76
2022-11-26T12:18:04.194Z,11.83
2022-11-26T12:20:31.078Z,11.83
2022-11-26T12:23:09.054Z,11.95
2022-11-26T12:25:39.595Z,11.61
2022-11-26T12:28:15.107Z,11.72
2022-11-26T12:31:01.487Z,11.59
2022-11-26T12:33:43.395Z,11.58
2022-11-26T12:36:15.191Z,11.61
2022-11-26T12:38:43.772Z,11.70
2022-11-26T12:41:11.565Z,11.75
2022-11-26T12:43:49.215Z,11.94
2022-11-26T12:46:19.893Z,12.05
2022-11-26T12:48:49.506Z,12.05
2022-11-26T12:51:30.121Z,12.20
2022-11-26T12:54:32.278Z,12.18
2022-11-26T12:57:00.794Z,12.05
2022-11-26T12:59:36.128Z,11.84
2022-11-26T13:02:09.432Z,11.74
2022-11-26T13:04:37.965Z,11.71
2022-11-26T13:07:08.713Z,11.54
2022-11-26T13:09:38.697Z,11.39
2022-11-26T13:12:10.179Z,11.32
2022-11-26T13:14:52.260Z,11.26
2022-11-26T13:17:19.482Z,11.31
2022-11-26T13:19:46.657Z,11.41
2022-11-26T13:22:13.298Z,11.50
2022-11-26T13:24:40.120Z,11.42
2022-11-26T13:27:25.368Z,11.25
2022-11-26T13:30:17.935Z,11.27
2022-11-26T13:33:03.020Z,10.97
2022-11-26T13:35:36.036Z,10.80
2022-11-26T13:38:05.175Z,10.69
2022-11-26T13:40:53.588Z,10.70
2022-11-26T13:43:26.717Z,10.43
2022-11-26T13:45:56.091Z,10.22
2022-11-26T13:48:31.459Z,10.19
2022-11-26T13:50:59.788Z,10.27
2022-11-26T13:53:31.733Z,10.36
2022-11-26T13:56:05.188Z,10.24
2022-11-26T13:58:44.047Z,10.14
2022-11-26T14:01:26.354Z,10.06
2022-11-26T14:03:52.917Z,10.09
2022-11-26T14:06:19.778Z,10.17
2022-11-26T14:08:47.176Z,10.07
2022-11-26T14:11:33.621Z,10.01
2022-11-26T14:14:19.082Z,9.97
2022-11-26T14:17:01.097Z,9.85
2022-11-26T14:19:39.854Z,9.88
2022-11-26T14:22:07.818Z,9.88
2022-11-26T14:24:49.946Z,9.89
2022-11-26T14:27:16.923Z,9.82
2022-11-26T14:29:43.933Z,9.83
2022-11-26T14:32:15.258Z,9.82
2022-11-26T14:34:43.527Z,9.78
2022-11-26T14:37:20.733Z,9.76
2022-11-26T14:39:57.232Z,9.66
2022-11-26T14:42:24.236Z,9.59
2022-11-26T14:45:00.924Z,9.62
2022-11-26T14:47:27.452Z,9.56
2022-11-26T14:49:56.331Z,9.53
2022-11-26T14:52:23.658Z,9.41
2022-11-26T14:54:53.947Z,9.34
2022-11-26T14:57:22.185Z,9.34
2022-11-26T14:59:58.896Z,9.20
2022-11-26T15:02:26.506Z,9.18
2022-11-26T15:05:00.138Z,9.08
2022-11-26T15:07:27.074Z,8.93
2022-11-26T15:10:04.619Z,8.86
2022-11-26T15:12:31.241Z,8.70
2022-11-26T15:14:59.127Z,8.66
2022-11-26T15:17:26.662Z,8.67
2022-11-26T15:19:53.268Z,8.55
2022-11-26T15:22:34.815Z,8.51
2022-11-26T15:25:01.377Z,8.37
2022-11-26T15:27:27.846Z,8.32
2022-11-26T15:29:54.388Z,8.29
2022-11-26T15:32:24.460Z,8.32
2022-11-26T15:34:51.067Z,8.26
2022-11-26T15:37:17.591Z,8.20
2022-11-26T15:39:44.120Z,8.09
2022-11-26T15:42:29.953Z,8.05
2022-11-26T15:44:56.426Z,7.95
2022-11-26T15:47:23.414Z,7.82
2022-11-26T15:49:52.091Z,7.78
2022-11-26T15:52:20.203Z,7.71
2022-11-26T15:55:12.052Z,7.62
2022-11-26T15:57:39.953Z,7.55
2022-11-26T16:00:09.746Z,7.53
2022-11-26T16:02:36.339Z,7.51
2022-11-26T16:05:03.588Z,7.44
2022-11-26T16:07:31.116Z,7.37
2022-11-26T16:10:15.753Z,7.39
2022-11-26T16:12:44.852Z,7.28
2022-11-26T16:15:17.205Z,7.23
2022-11-26T16:17:44.156Z,7.19
2022-11-26T16:20:16.209Z,7.08
2022-11-26T16:22:44.117Z,7.07
2022-11-26T16:25:19.849Z,7.01
2022-11-26T16:28:01.243Z,7.00
2022-11-26T16:30:27.775Z,6.96
2022-11-26T16:32:54.389Z,6.97
2022-11-26T16:35:44.173Z,6.99
2022-11-26T16:38:13.201Z,6.95
2022-11-26T16:40:39.770Z,6.93
2022-11-26T16:43:06.305Z,6.92
2022-11-26T16:45:32.822Z,6.90
2022-11-26T16:47:59.352Z,6.86
2022-11-26T16:50:26.483Z,6.83
2022-11-26T16:52:55.313Z,6.84
2022-11-26T16:55:25.917Z,6.81
2022-11-26T16:57:53.314Z,6.80
2022-11-26T17:00:21.099Z,6.75
2022-11-26T17:02:47.688Z,6.78
2022-11-26T17:05:14.892Z,6.73
2022-11-26T17:07:46.684Z,6.71
2022-11-26T17:10:14.475Z,6.70
2022-11-26T17:12:41.247Z,6.61
2022-11-26T17:15:08.023Z,6.71
2022-11-26T17:17:34.607Z,6.64
2022-11-26T17:20:01.153Z,6.69
2022-11-26T17:22:27.729Z,6.73
2022-11-26T17:24:54.255Z,6.72
2022-11-26T17:27:21.001Z,6.51
2022-11-26T17:29:47.956Z,6.44
2022-11-26T17:32:17.097Z,6.52
2022-11-26T17:34:43.984Z,6.41
2022-11-26T17:37:29.793Z,6.46
2022-11-26T17:39:56.663Z,6.35
2022-11-26T17:42:23.958Z,6.31
2022-11-26T17:44:51.377Z,6.26
2022-11-26T17:47:19.106Z,6.25
2022-11-26T17:49:45.897Z,6.17
2022-11-26T17:52:12.468Z,6.03
2022-11-26T17:54:39.070Z,6.04
2022-11-26T17:57:05.719Z,5.98
2022-11-26T17:59:32.809Z,5.98
2022-11-26T18:01:59.504Z,6.05
2022-11-26T18:04:26.079Z,6.01
2022-11-26T18:07:07.602Z,6.07
2022-11-26T18:09:34.337Z,6.02
2022-11-26T18:12:00.971Z,6.14
2022-11-26T18:14:27.822Z,5.99
2022-11-26T18:16:54.772Z,5.83
2022-11-26T18:19:22.333Z,5.90
2022-11-26T18:21:49.446Z,5.99
2022-11-26T18:24:16.207Z,6.09
2022-11-26T18:26:42.741Z,5.95
2022-11-26T18:29:09.829Z,5.97
2022-11-26T18:31:39.513Z,5.84
2022-11-26T18:34:06.744Z,5.93
2022-11-26T18:36:33.753Z,5.80
2022-11-26T18:39:00.267Z,5.89
2022-11-26T18:41:26.776Z,5.82
2022-11-26T18:43:53.708Z,5.79
2022-11-26T18:46:20.302Z,5.76
2022-11-26T18:48:48.948Z,5.84
2022-11-26T18:51:15.757Z,5.94
2022-11-26T18:53:42.628Z,5.92
2022-11-26T18:56:13.790Z,5.86
2022-11-26T18:58:44.044Z,5.73
2022-11-26T19:01:14.663Z,5.72
2022-11-26T19:03:44.111Z,5.66
2022-11-26T19:06:14.516Z,5.72
2022-11-26T19:08:41.084Z,5.77
2022-11-26T19:11:08.642Z,5.69
2022-11-26T19:13:35.623Z,5.59
2022-11-26T19:16:05.894Z,5.59
2022-11-26T19:18:32.395Z,5.65
2022-11-26T19:20:59.098Z,5.63
2022-11-26T19:23:28.296Z,5.65
2022-11-26T19:25:55.647Z,5.71
2022-11-26T19:28:26.810Z,5.61
2022-11-26T19:30:57.904Z,5.66
2022-11-26T19:33:24.623Z,5.64
2022-11-26T19:35:51.259Z,5.71
2022-11-26T19:38:17.785Z,5.64
2022-11-26T19:40:44.292Z,5.59
2022-11-26T19:43:10.838Z,5.68
2022-11-26T19:45:37.405Z,5.57
2022-11-26T19:48:04.020Z,5.56
2022-11-26T19:50:30.696Z,5.35
2022-11-26T19:52:57.447Z,5.27
2022-11-26T19:55:24.005Z,5.19
2022-11-26T19:57:50.783Z,5.18
2022-11-26T20:00:17.401Z,5.31
2022-11-26T20:02:44.141Z,5.14
2022-11-26T20:05:10.786Z,5.19
2022-11-26T20:07:37.394Z,5.08
2022-11-26T20:10:04.381Z,5.13
2022-11-26T20:12:31.042Z,5.11
2022-11-26T20:15:00.400Z,5.19
2022-11-26T20:17:30.199Z,5.06
2022-11-26T20:19:56.817Z,5.05
2022-11-26T20:22:27.708Z,5.11
2022-11-26T20:24:54.519Z,5.06
2022-11-26T20:27:21.065Z,4.93
2022-11-26T20:29:47.647Z,4.95
2022-11-26T20:32:14.813Z,4.93
2022-11-26T20:34:41.433Z,4.94
2022-11-26T20:37:07.931Z,5.01
2022-11-26T20:39:34.470Z,5.14
2022-11-26T20:42:00.991Z,4.93
2022-11-26T20:44:28.636Z,4.80
2022-11-26T20:46:57.064Z,4.95
2022-11-26T20:49:23.840Z,4.93
2022-11-26T20:51:50.412Z,4.88
2022-11-26T20:54:16.913Z,4.84
2022-11-26T20:56:43.840Z,4.95
2022-11-26T20:59:10.684Z,5.20
2022-11-26T21:01:37.349Z,5.26
2022-11-26T21:04:04.027Z,5.07
2022-11-26T21:06:31.553Z,4.92
2022-11-26T21:09:01.874Z,4.76
2022-11-26T21:11:28.825Z,4.56
2022-11-26T21:13:55.451Z,4.54
2022-11-26T21:16:23.363Z,4.59
2022-11-26T21:18:51.901Z,4.61
2022-11-26T21:21:18.510Z,4.91
2022-11-26T21:23:45.647Z,4.97
2022-11-26T21:26:17.328Z,4.67
2022-11-26T21:28:43.859Z,4.63
2022-11-26T21:31:13.822Z,4.75
2022-11-26T21:33:48.046Z,4.75
2022-11-26T21:36:15.664Z,4.75
2022-11-26T21:38:43.399Z,4.54
2022-11-26T21:41:13.602Z,4.27
2022-11-26T21:43:40.366Z,4.11
2022-11-26T21:46:16.208Z,4.06
2022-11-26T21:48:43.542Z,3.95
2022-11-26T21:51:12.420Z,3.65
2022-11-26T21:53:39.100Z,3.71
2022-11-26T21:56:06.667Z,3.66
2022-11-26T21:58:35.781Z,3.76
2022-11-26T22:01:12.552Z,3.82
2022-11-26T22:03:39.738Z,3.85
2022-11-26T22:06:06.539Z,3.77
2022-11-26T22:08:33.138Z,3.81
2022-11-26T22:10:59.827Z,3.93
2022-11-26T22:13:26.401Z,3.55
2022-11-26T22:15:52.968Z,3.53
2022-11-26T22:18:19.525Z,3.65
2022-11-26T22:20:49.859Z,3.73
2022-11-26T22:23:16.540Z,3.96
2022-11-26T22:25:45.076Z,3.91
2022-11-26T22:28:12.749Z,3.88
2022-11-26T22:30:39.298Z,3.82
2022-11-26T22:33:05.817Z,3.80
2022-11-26T22:35:33.496Z,3.67
2022-11-26T22:38:00.007Z,3.48
2022-11-26T22:40:26.745Z,3.67
2022-11-26T22:42:55.335Z,3.59
2022-11-26T22:45:22.611Z,3.66
2022-11-26T22:47:52.711Z,3.58
2022-11-26T22:50:19.625Z,3.60
2022-11-26T22:52:46.174Z,3.38
2022-11-26T22:55:12.747Z,3.41
2022-11-26T22:57:39.460Z,3.40
2022-11-26T23:00:07.269Z,3.58
2022-11-26T23:02:34.101Z,3.25
2022-11-26T23:05:02.082Z,3.48
2022-11-26T23:07:28.741Z,3.52
2022-11-26T23:09:55.443Z,3.20
2022-11-26T23:12:22.946Z,3.35
2022-11-26T23:14:49.803Z,3.21
2022-11-26T23:17:16.317Z,3.16
2022-11-26T23:19:43.480Z,2.88
2022-11-26T23:22:10.034Z,2.90
2022-11-26T23:24:36.592Z,3.16
2022-11-26T23:27:03.792Z,3.29
2022-11-26T23:29:30.578Z,3.39
2022-11-26T23:31:57.273Z,3.28
2022-11-26T23:34:23.885Z,3.26
2022-11-26T23:36:50.495Z,2.90
2022-11-26T23:39:17.400Z,2.75
2022-11-26T23:41:44.720Z,2.53
2022-11-26T23:44:11.249Z,2.17
2022-11-26T23:46:37.829Z,2.03
2022-11-26T23:49:04.745Z,2.19
2022-11-26T23:51:32.420Z,2.42
2022-11-26T23:53:59.033Z,2.34
2022-11-26T23:56:27.051Z,2.52
2022-11-26T23:58:54.610Z,2.69
